Babworth, United Kingdom
Current Conditions -  °F | °C
As of 2:50 PM on Friday 24 Oct 2014 (Local Time) from EGCN Reporting Station
Light Rain Light Rain  
Wind Chill: 57°   Ceiling: 1900
Heat Index: 57°   Visibility: 2.3mi
Dew Point: 50°   Wind: 13mph
Humidity: 77%   Direction: 250°WSW
Pressure: 29.88"   Gusts: NA
Location:  53.32°N, 0.98°W
Report Text: EGCN 241350Z 25011KT 3700 -RA BKN019 OVC033 14/10 Q1012
Loading
Personal Weather Stations






























Interactive Weather Map
Tropical Storm Tracking
New forecast layout! Learn more

10-Day Weather Forecast

Advertisements
Track Severe Weather on mobile